sensor_id;sensor_type;location;lat;lon;timestamp;pressure;altitude;pressure_sealevel;temperature;humidity
64632;BME280;58358;50.936;0.246;2022-08-03T00:00:34;100962.12;;;18.55;65.75
64632;BME280;58358;50.936;0.246;2022-08-03T00:02:59;100960.69;;;17.62;67.01
64632;BME280;58358;50.936;0.246;2022-08-03T00:05:25;100960.75;;;18.77;64.63
64632;BME280;58358;50.936;0.246;2022-08-03T00:07:50;100960.08;;;19.33;62.49
64632;BME280;58358;50.936;0.246;2022-08-03T00:10:16;100960.42;;;19.21;63.59
64632;BME280;58358;50.936;0.246;2022-08-03T00:12:42;100952.86;;;17.16;67.47
64632;BME280;58358;50.936;0.246;2022-08-03T00:15:08;100945.37;;;19.70;62.71
64632;BME280;58358;50.936;0.246;2022-08-03T00:17:33;100942.54;;;19.90;60.96
64632;BME280;58358;50.936;0.246;2022-08-03T00:19:58;100942.24;;;19.49;61.85
64632;BME280;58358;50.936;0.246;2022-08-03T00:22:24;100938.17;;;19.45;62.02
64632;BME280;58358;50.936;0.246;2022-08-03T00:24:49;100932.84;;;19.06;63.22
64632;BME280;58358;50.936;0.246;2022-08-03T00:27:15;100932.16;;;18.78;62.90
64632;BME280;58358;50.936;0.246;2022-08-03T00:29:41;100935.51;;;19.06;63.00
64632;BME280;58358;50.936;0.246;2022-08-03T00:32:06;100932.17;;;19.10;62.51
64632;BME280;58358;50.936;0.246;2022-08-03T00:34:31;100932.23;;;19.83;61.69
64632;BME280;58358;50.936;0.246;2022-08-03T00:36:57;100930.12;;;18.87;63.88
64632;BME280;58358;50.936;0.246;2022-08-03T00:39:23;100932.59;;;19.21;62.62
64632;BME280;58358;50.936;0.246;2022-08-03T00:41:48;100931.37;;;19.19;61.55
64632;BME280;58358;50.936;0.246;2022-08-03T00:44:14;100933.91;;;19.07;62.33
64632;BME280;58358;50.936;0.246;2022-08-03T00:46:40;100928.12;;;19.81;61.16
64632;BME280;58358;50.936;0.246;2022-08-03T00:49:05;100930.58;;;19.48;61.85
64632;BME280;58358;50.936;0.246;2022-08-03T00:51:31;100934.45;;;19.05;63.58
64632;BME280;58358;50.936;0.246;2022-08-03T00:53:56;100930.76;;;19.78;61.29
64632;BME280;58358;50.936;0.246;2022-08-03T00:56:22;100928.95;;;19.66;60.59
64632;BME280;58358;50.936;0.246;2022-08-03T00:58:47;100928.98;;;19.56;60.88
64632;BME280;58358;50.936;0.246;2022-08-03T01:01:14;100927.29;;;19.40;61.20
64632;BME280;58358;50.936;0.246;2022-08-03T01:03:39;100926.25;;;19.14;62.27
64632;BME280;58358;50.936;0.246;2022-08-03T01:06:09;100928.64;;;18.55;64.47
64632;BME280;58358;50.936;0.246;2022-08-03T01:08:35;100923.80;;;18.16;65.44
64632;BME280;58358;50.936;0.246;2022-08-03T01:11:01;100923.36;;;18.13;66.78
64632;BME280;58358;50.936;0.246;2022-08-03T01:13:26;100924.11;;;18.11;65.99
64632;BME280;58358;50.936;0.246;2022-08-03T01:15:52;100922.41;;;17.46;67.48
64632;BME280;58358;50.936;0.246;2022-08-03T01:18:16;100924.25;;;18.11;66.06
64632;BME280;58358;50.936;0.246;2022-08-03T01:20:41;100922.23;;;18.51;66.22
64632;BME280;58358;50.936;0.246;2022-08-03T01:25:37;100924.53;;;18.45;66.63
64632;BME280;58358;50.936;0.246;2022-08-03T01:28:01;100923.33;;;18.07;66.26
64632;BME280;58358;50.936;0.246;2022-08-03T01:30:19;100923.15;;;18.38;66.03
64632;BME280;58358;50.936;0.246;2022-08-03T01:32:49;100927.32;;;17.84;66.11
64632;BME280;58358;50.936;0.246;2022-08-03T01:35:13;100925.88;;;18.49;64.39
64632;BME280;58358;50.936;0.246;2022-08-03T01:37:40;100925.52;;;18.52;63.61
64632;BME280;58358;50.936;0.246;2022-08-03T01:40:02;100919.98;;;19.74;61.09
64632;BME280;58358;50.936;0.246;2022-08-03T01:42:28;100921.96;;;18.65;64.85
64632;BME280;58358;50.936;0.246;2022-08-03T01:44:53;100920.70;;;18.30;64.64
64632;BME280;58358;50.936;0.246;2022-08-03T01:47:19;100916.77;;;19.35;61.99
64632;BME280;58358;50.936;0.246;2022-08-03T01:49:44;100915.47;;;18.34;62.87
64632;BME280;58358;50.936;0.246;2022-08-03T01:52:10;100913.47;;;18.83;63.91
64632;BME280;58358;50.936;0.246;2022-08-03T01:54:36;100909.39;;;17.79;66.22
64632;BME280;58358;50.936;0.246;2022-08-03T01:57:01;100909.61;;;18.45;65.09
64632;BME280;58358;50.936;0.246;2022-08-03T01:59:27;100905.46;;;18.41;65.54
64632;BME280;58358;50.936;0.246;2022-08-03T02:01:52;100908.29;;;18.14;65.08
64632;BME280;58358;50.936;0.246;2022-08-03T02:04:17;100907.90;;;17.89;66.65
64632;BME280;58358;50.936;0.246;2022-08-03T02:06:44;100901.17;;;17.96;66.00
64632;BME280;58358;50.936;0.246;2022-08-03T02:09:08;100901.04;;;18.07;65.85
64632;BME280;58358;50.936;0.246;2022-08-03T02:11:34;100900.32;;;17.71;67.08
64632;BME280;58358;50.936;0.246;2022-08-03T02:14:01;100902.73;;;17.13;69.21
64632;BME280;58358;50.936;0.246;2022-08-03T02:16:25;100900.73;;;17.60;67.44
64632;BME280;58358;50.936;0.246;2022-08-03T02:18:50;100900.12;;;17.12;69.69
64632;BME280;58358;50.936;0.246;2022-08-03T02:21:15;100898.28;;;16.77;70.79
64632;BME280;58358;50.936;0.246;2022-08-03T02:23:41;100901.93;;;16.83;71.48
64632;BME280;58358;50.936;0.246;2022-08-03T02:26:10;100896.33;;;17.17;69.84
64632;BME280;58358;50.936;0.246;2022-08-03T02:28:34;100899.14;;;16.60;72.25
64632;BME280;58358;50.936;0.246;2022-08-03T02:30:57;100899.21;;;16.35;72.63
64632;BME280;58358;50.936;0.246;2022-08-03T02:33:26;100893.41;;;17.05;70.24
64632;BME280;58358;50.936;0.246;2022-08-03T02:35:49;100893.57;;;16.74;70.22
64632;BME280;58358;50.936;0.246;2022-08-03T02:38:14;100885.99;;;17.07;69.74
64632;BME280;58358;50.936;0.246;2022-08-03T02:40:40;100891.51;;;16.26;71.90
64632;BME280;58358;50.936;0.246;2022-08-03T02:43:07;100891.08;;;15.61;74.05
64632;BME280;58358;50.936;0.246;2022-08-03T02:45:31;100896.10;;;16.60;71.17
64632;BME280;58358;50.936;0.246;2022-08-03T02:47:59;100893.54;;;16.24;71.46
64632;BME280;58358;50.936;0.246;2022-08-03T02:50:22;100888.81;;;16.58;69.54
64632;BME280;58358;50.936;0.246;2022-08-03T02:52:47;100891.02;;;16.53;70.52
64632;BME280;58358;50.936;0.246;2022-08-03T02:55:14;100886.23;;;16.11;70.12
64632;BME280;58358;50.936;0.246;2022-08-03T02:57:38;100883.08;;;16.69;68.44
64632;BME280;58358;50.936;0.246;2022-08-03T03:00:05;100882.02;;;16.65;68.78
64632;BME280;58358;50.936;0.246;2022-08-03T03:02:30;100882.83;;;16.79;68.23
64632;BME280;58358;50.936;0.246;2022-08-03T03:04:55;100884.90;;;16.42;69.18
64632;BME280;58358;50.936;0.246;2022-08-03T03:07:21;100883.92;;;16.76;69.38
64632;BME280;58358;50.936;0.246;2022-08-03T03:09:47;100886.07;;;15.94;70.87
64632;BME280;58358;50.936;0.246;2022-08-03T03:12:12;100882.69;;;15.71;72.80
64632;BME280;58358;50.936;0.246;2022-08-03T03:14:38;100884.92;;;16.28;70.76
64632;BME280;58358;50.936;0.246;2022-08-03T03:17:04;100882.37;;;16.25;70.62
64632;BME280;58358;50.936;0.246;2022-08-03T03:19:30;100886.36;;;16.50;70.79
64632;BME280;58358;50.936;0.246;2022-08-03T03:21:55;100886.06;;;16.58;69.38
64632;BME280;58358;50.936;0.246;2022-08-03T03:24:20;100883.27;;;16.32;69.80
64632;BME280;58358;50.936;0.246;2022-08-03T03:26:47;100880.02;;;16.14;67.58
64632;BME280;58358;50.936;0.246;2022-08-03T03:29:11;100871.25;;;17.62;65.66
64632;BME280;58358;50.936;0.246;2022-08-03T03:31:37;100875.82;;;16.86;67.85
64632;BME280;58358;50.936;0.246;2022-08-03T03:34:02;100875.46;;;17.07;67.50
64632;BME280;58358;50.936;0.246;2022-08-03T03:36:27;100873.50;;;17.41;66.31
64632;BME280;58358;50.936;0.246;2022-08-03T03:38:53;100875.46;;;17.06;66.25
64632;BME280;58358;50.936;0.246;2022-08-03T03:41:19;100878.04;;;17.61;65.49
64632;BME280;58358;50.936;0.246;2022-08-03T03:43:45;100874.86;;;17.50;65.50
64632;BME280;58358;50.936;0.246;2022-08-03T03:46:11;100874.17;;;16.92;66.90
64632;BME280;58358;50.936;0.246;2022-08-03T03:48:36;100871.16;;;17.45;66.04
64632;BME280;58358;50.936;0.246;2022-08-03T03:51:02;100869.10;;;17.51;65.68
64632;BME280;58358;50.936;0.246;2022-08-03T03:53:27;100867.83;;;17.95;64.81
64632;BME280;58358;50.936;0.246;2022-08-03T03:55:52;100867.72;;;17.71;64.85
64632;BME280;58358;50.936;0.246;2022-08-03T03:58:19;100868.64;;;17.57;65.78
64632;BME280;58358;50.936;0.246;2022-08-03T04:00:44;100871.85;;;16.98;66.63
64632;BME280;58358;50.936;0.246;2022-08-03T04:03:10;100873.26;;;17.17;66.98
64632;BME280;58358;50.936;0.246;2022-08-03T04:05:36;100874.51;;;17.64;65.57
64632;BME280;58358;50.936;0.246;2022-08-03T04:08:04;100877.90;;;17.93;64.57
64632;BME280;58358;50.936;0.246;2022-08-03T04:10:29;100881.89;;;18.30;63.27
64632;BME280;58358;50.936;0.246;2022-08-03T04:12:52;100883.47;;;17.15;66.70
64632;BME280;58358;50.936;0.246;2022-08-03T04:15:18;100877.78;;;17.88;63.92
64632;BME280;58358;50.936;0.246;2022-08-03T04:17:43;100880.63;;;17.20;64.83
64632;BME280;58358;50.936;0.246;2022-08-03T04:20:09;100876.93;;;18.19;64.53
64632;BME280;58358;50.936;0.246;2022-08-03T04:22:33;100876.00;;;18.15;63.87
64632;BME280;58358;50.936;0.246;2022-08-03T04:25:02;100875.71;;;18.46;62.71
64632;BME280;58358;50.936;0.246;2022-08-03T04:27:26;100878.87;;;17.58;65.76
64632;BME280;58358;50.936;0.246;2022-08-03T04:29:52;100881.94;;;16.85;66.73
64632;BME280;58358;50.936;0.246;2022-08-03T04:32:16;100880.49;;;17.60;65.63
64632;BME280;58358;50.936;0.246;2022-08-03T04:34:41;100884.93;;;16.39;68.38
64632;BME280;58358;50.936;0.246;2022-08-03T04:37:11;100890.54;;;16.24;69.46
64632;BME280;58358;50.936;0.246;2022-08-03T04:39:32;100890.16;;;16.33;69.87
64632;BME280;58358;50.936;0.246;2022-08-03T04:42:01;100882.04;;;15.95;71.12
64632;BME280;58358;50.936;0.246;2022-08-03T04:44:24;100881.64;;;15.80;71.05
64632;BME280;58358;50.936;0.246;2022-08-03T04:46:49;100885.82;;;15.86;70.19
64632;BME280;58358;50.936;0.246;2022-08-03T04:49:13;100886.09;;;15.42;72.81
64632;BME280;58358;50.936;0.246;2022-08-03T04:51:39;100894.22;;;16.32;69.38
64632;BME280;58358;50.936;0.246;2022-08-03T04:54:04;100894.11;;;16.85;67.94
64632;BME280;58358;50.936;0.246;2022-08-03T04:56:30;100892.79;;;17.06;67.30
64632;BME280;58358;50.936;0.246;2022-08-03T04:58:55;100894.13;;;17.01;66.07
64632;BME280;58358;50.936;0.246;2022-08-03T05:01:20;100894.34;;;16.91;67.34
64632;BME280;58358;50.936;0.246;2022-08-03T05:03:46;100894.73;;;15.53;70.52
64632;BME280;58358;50.936;0.246;2022-08-03T05:06:12;100903.20;;;16.66;68.81
64632;BME280;58358;50.936;0.246;2022-08-03T05:08:38;100903.10;;;16.48;69.05
64632;BME280;58358;50.936;0.246;2022-08-03T05:11:03;100900.67;;;15.94;70.46
64632;BME280;58358;50.936;0.246;2022-08-03T05:13:28;100900.80;;;16.29;70.48
64632;BME280;58358;50.936;0.246;2022-08-03T05:15:54;100903.05;;;16.09;70.77
64632;BME280;58358;50.936;0.246;2022-08-03T05:18:19;100908.31;;;16.43;70.09
64632;BME280;58358;50.936;0.246;2022-08-03T05:20:45;100906.93;;;15.52;70.62
64632;BME280;58358;50.936;0.246;2022-08-03T05:23:10;100905.67;;;16.24;70.45
64632;BME280;58358;50.936;0.246;2022-08-03T05:25:35;100911.79;;;15.59;72.40
64632;BME280;58358;50.936;0.246;2022-08-03T05:28:01;100912.43;;;15.84;72.74
64632;BME280;58358;50.936;0.246;2022-08-03T05:30:26;100914.86;;;15.58;72.61
64632;BME280;58358;50.936;0.246;2022-08-03T05:32:51;100916.88;;;16.38;68.93
64632;BME280;58358;50.936;0.246;2022-08-03T05:35:17;100918.93;;;16.66;67.93
64632;BME280;58358;50.936;0.246;2022-08-03T05:37:43;100920.31;;;16.77;66.71
64632;BME280;58358;50.936;0.246;2022-08-03T05:40:09;100916.07;;;16.48;69.42
64632;BME280;58358;50.936;0.246;2022-08-03T05:42:36;100919.40;;;17.31;66.72
64632;BME280;58358;50.936;0.246;2022-08-03T05:45:03;100914.67;;;17.22;65.92
64632;BME280;58358;50.936;0.246;2022-08-03T05:47:25;100909.32;;;17.96;63.98
64632;BME280;58358;50.936;0.246;2022-08-03T05:49:50;100915.15;;;17.44;64.72
64632;BME280;58358;50.936;0.246;2022-08-03T05:52:15;100914.42;;;18.81;62.06
64632;BME280;58358;50.936;0.246;2022-08-03T05:54:41;100917.37;;;16.77;66.42
64632;BME280;58358;50.936;0.246;2022-08-03T05:57:06;100924.04;;;16.58;68.11
64632;BME280;58358;50.936;0.246;2022-08-03T05:59:31;100925.45;;;17.09;67.39
64632;BME280;58358;50.936;0.246;2022-08-03T06:01:57;100924.81;;;17.12;66.68
64632;BME280;58358;50.936;0.246;2022-08-03T06:04:22;100924.99;;;16.68;67.12
64632;BME280;58358;50.936;0.246;2022-08-03T06:06:47;100921.44;;;16.94;66.80
64632;BME280;58358;50.936;0.246;2022-08-03T06:09:13;100923.20;;;17.54;65.64
64632;BME280;58358;50.936;0.246;2022-08-03T06:11:39;100926.99;;;17.54;64.94
64632;BME280;58358;50.936;0.246;2022-08-03T06:14:04;100925.50;;;17.90;64.03
64632;BME280;58358;50.936;0.246;2022-08-03T06:16:29;100934.18;;;18.24;63.21
64632;BME280;58358;50.936;0.246;2022-08-03T06:18:55;100933.07;;;18.06;63.48
64632;BME280;58358;50.936;0.246;2022-08-03T06:21:20;100934.77;;;18.32;63.82
64632;BME280;58358;50.936;0.246;2022-08-03T06:23:45;100937.76;;;17.97;63.67
64632;BME280;58358;50.936;0.246;2022-08-03T06:26:10;100938.12;;;18.68;62.56
64632;BME280;58358;50.936;0.246;2022-08-03T06:28:36;100939.18;;;17.87;64.94
64632;BME280;58358;50.936;0.246;2022-08-03T06:31:02;100945.36;;;17.74;65.29
64632;BME280;58358;50.936;0.246;2022-08-03T06:33:27;100943.44;;;17.99;64.62
64632;BME280;58358;50.936;0.246;2022-08-03T06:35:52;100945.40;;;18.49;62.03
64632;BME280;58358;50.936;0.246;2022-08-03T06:38:17;100942.58;;;19.42;60.06
64632;BME280;58358;50.936;0.246;2022-08-03T06:40:43;100944.75;;;19.01;60.54
64632;BME280;58358;50.936;0.246;2022-08-03T06:43:08;100942.15;;;18.89;61.35
64632;BME280;58358;50.936;0.246;2022-08-03T06:45:33;100943.03;;;19.14;61.30
64632;BME280;58358;50.936;0.246;2022-08-03T06:48:00;100943.26;;;19.61;59.67
64632;BME280;58358;50.936;0.246;2022-08-03T06:50:24;100944.13;;;19.70;59.54
64632;BME280;58358;50.936;0.246;2022-08-03T06:52:50;100938.95;;;19.02;60.86
64632;BME280;58358;50.936;0.246;2022-08-03T06:55:16;100943.36;;;18.93;62.26
64632;BME280;58358;50.936;0.246;2022-08-03T06:57:41;100942.44;;;18.28;64.26
64632;BME280;58358;50.936;0.246;2022-08-03T07:00:07;100944.99;;;17.81;65.34
64632;BME280;58358;50.936;0.246;2022-08-03T07:02:31;100948.91;;;19.19;62.42
64632;BME280;58358;50.936;0.246;2022-08-03T07:04:56;100946.36;;;17.79;66.09
64632;BME280;58358;50.936;0.246;2022-08-03T07:07:22;100943.66;;;18.27;65.11
64632;BME280;58358;50.936;0.246;2022-08-03T07:09:47;100943.91;;;18.03;65.55
64632;BME280;58358;50.936;0.246;2022-08-03T07:12:13;100940.73;;;18.23;65.27
64632;BME280;58358;50.936;0.246;2022-08-03T07:14:39;100939.99;;;18.58;63.97
64632;BME280;58358;50.936;0.246;2022-08-03T07:17:04;100940.84;;;18.74;63.60
64632;BME280;58358;50.936;0.246;2022-08-03T07:19:29;100943.30;;;19.33;62.38
64632;BME280;58358;50.936;0.246;2022-08-03T07:21:54;100945.98;;;18.79;62.74
64632;BME280;58358;50.936;0.246;2022-08-03T07:24:20;100949.97;;;18.04;64.82
64632;BME280;58358;50.936;0.246;2022-08-03T07:26:45;100955.58;;;17.10;66.46
64632;BME280;58358;50.936;0.246;2022-08-03T07:29:10;100949.00;;;18.62;63.93
64632;BME280;58358;50.936;0.246;2022-08-03T07:31:36;100951.19;;;17.79;65.42
64632;BME280;58358;50.936;0.246;2022-08-03T07:34:02;100952.71;;;19.42;60.99
64632;BME280;58358;50.936;0.246;2022-08-03T07:36:27;100953.90;;;20.24;58.91
64632;BME280;58358;50.936;0.246;2022-08-03T07:38:52;100960.18;;;19.39;61.54
64632;BME280;58358;50.936;0.246;2022-08-03T07:41:18;100959.81;;;18.91;63.44
64632;BME280;58358;50.936;0.246;2022-08-03T07:43:43;100956.00;;;18.31;62.52
64632;BME280;58358;50.936;0.246;2022-08-03T07:46:08;100960.01;;;18.09;64.70
64632;BME280;58358;50.936;0.246;2022-08-03T07:48:34;100960.85;;;18.43;64.24
64632;BME280;58358;50.936;0.246;2022-08-03T07:51:00;100960.69;;;19.22;62.07
64632;BME280;58358;50.936;0.246;2022-08-03T07:53:25;100966.44;;;19.28;62.30
64632;BME280;58358;50.936;0.246;2022-08-03T07:55:50;100964.59;;;19.60;59.84
64632;BME280;58358;50.936;0.246;2022-08-03T07:58:16;100967.31;;;19.26;61.64
64632;BME280;58358;50.936;0.246;2022-08-03T08:00:43;100963.96;;;18.77;62.67
64632;BME280;58358;50.936;0.246;2022-08-03T08:03:07;100969.60;;;19.23;62.14
64632;BME280;58358;50.936;0.246;2022-08-03T08:05:33;100966.02;;;18.35;64.17
64632;BME280;58358;50.936;0.246;2022-08-03T08:07:59;100966.71;;;19.17;61.97
64632;BME280;58358;50.936;0.246;2022-08-03T08:10:24;100968.80;;;19.58;61.90
64632;BME280;58358;50.936;0.246;2022-08-03T08:12:49;100967.95;;;19.63;60.95
64632;BME280;58358;50.936;0.246;2022-08-03T08:15:15;100966.95;;;19.41;62.12
64632;BME280;58358;50.936;0.246;2022-08-03T08:17:42;100968.77;;;18.94;63.69
64632;BME280;58358;50.936;0.246;2022-08-03T08:20:07;100966.06;;;18.25;65.13
64632;BME280;58358;50.936;0.246;2022-08-03T08:22:30;100971.82;;;19.26;63.38
64632;BME280;58358;50.936;0.246;2022-08-03T08:24:57;100978.30;;;19.26;62.71
64632;BME280;58358;50.936;0.246;2022-08-03T08:27:21;100979.68;;;19.01;63.17
64632;BME280;58358;50.936;0.246;2022-08-03T08:29:47;100979.03;;;19.80;59.60
64632;BME280;58358;50.936;0.246;2022-08-03T08:32:12;100977.91;;;20.37;58.58
64632;BME280;58358;50.936;0.246;2022-08-03T08:34:37;100984.27;;;19.14;60.98
64632;BME280;58358;50.936;0.246;2022-08-03T08:37:03;100988.00;;;19.90;59.07
64632;BME280;58358;50.936;0.246;2022-08-03T08:39:29;100988.72;;;19.06;61.05
64632;BME280;58358;50.936;0.246;2022-08-03T08:41:54;100991.96;;;20.09;59.30
64632;BME280;58358;50.936;0.246;2022-08-03T08:44:19;100987.46;;;19.42;60.49
64632;BME280;58358;50.936;0.246;2022-08-03T08:46:45;100989.99;;;19.82;59.64
64632;BME280;58358;50.936;0.246;2022-08-03T08:49:11;100989.84;;;19.55;60.08
64632;BME280;58358;50.936;0.246;2022-08-03T08:51:35;100993.21;;;18.76;63.23
64632;BME280;58358;50.936;0.246;2022-08-03T08:54:01;100991.39;;;18.46;64.22
64632;BME280;58358;50.936;0.246;2022-08-03T08:56:26;100994.41;;;18.88;63.19
64632;BME280;58358;50.936;0.246;2022-08-03T08:58:55;100996.10;;;18.06;65.83
64632;BME280;58358;50.936;0.246;2022-08-03T09:01:17;100987.43;;;19.84;60.16
64632;BME280;58358;50.936;0.246;2022-08-03T09:03:43;100983.45;;;19.50;60.32
64632;BME280;58358;50.936;0.246;2022-08-03T09:06:08;100984.92;;;19.33;61.01
64632;BME280;58358;50.936;0.246;2022-08-03T09:08:33;100981.95;;;18.65;62.15
64632;BME280;58358;50.936;0.246;2022-08-03T09:10:59;100984.62;;;19.26;61.97
64632;BME280;58358;50.936;0.246;2022-08-03T09:13:24;100980.81;;;19.05;61.70
64632;BME280;58358;50.936;0.246;2022-08-03T09:18:27;100975.64;;;18.91;62.99
64632;BME280;58358;50.936;0.246;2022-08-03T09:20:41;100977.26;;;19.78;60.41
64632;BME280;58358;50.936;0.246;2022-08-03T09:23:08;100973.74;;;19.79;60.05
64632;BME280;58358;50.936;0.246;2022-08-03T09:25:33;100975.09;;;20.11;60.90
64632;BME280;58358;50.936;0.246;2022-08-03T09:28:06;100971.42;;;20.01;59.87
64632;BME280;58358;50.936;0.246;2022-08-03T09:30:23;100969.45;;;18.54;63.51
64632;BME280;58358;50.936;0.246;2022-08-03T09:32:49;100974.74;;;18.52;63.59
64632;BME280;58358;50.936;0.246;2022-08-03T09:35:14;100975.14;;;19.37;63.20
64632;BME280;58358;50.936;0.246;2022-08-03T09:37:40;100976.44;;;19.32;62.42
64632;BME280;58358;50.936;0.246;2022-08-03T09:40:07;100976.12;;;18.86;63.53
64632;BME280;58358;50.936;0.246;2022-08-03T09:42:31;100974.96;;;20.26;59.87
64632;BME280;58358;50.936;0.246;2022-08-03T09:44:57;100974.44;;;19.27;61.18
64632;BME280;58358;50.936;0.246;2022-08-03T09:47:28;100978.85;;;19.77;60.27
64632;BME280;58358;50.936;0.246;2022-08-03T09:49:55;100975.79;;;20.32;58.47
64632;BME280;58358;50.936;0.246;2022-08-03T09:52:14;100973.46;;;20.95;57.35
64632;BME280;58358;50.936;0.246;2022-08-03T09:54:42;100974.99;;;21.26;56.62
64632;BME280;58358;50.936;0.246;2022-08-03T09:57:04;100980.68;;;22.27;54.76
64632;BME280;58358;50.936;0.246;2022-08-03T09:59:31;100984.48;;;20.88;57.09
64632;BME280;58358;50.936;0.246;2022-08-03T10:01:57;100987.19;;;18.15;63.28
64632;BME280;58358;50.936;0.246;2022-08-03T10:04:21;100992.44;;;20.99;56.63
64632;BME280;58358;50.936;0.246;2022-08-03T10:09:13;100981.25;;;20.61;58.02
64632;BME280;58358;50.936;0.246;2022-08-03T10:11:38;100978.64;;;20.78;56.89
64632;BME280;58358;50.936;0.246;2022-08-03T10:14:04;100981.57;;;21.51;56.06
64632;BME280;58358;50.936;0.246;2022-08-03T10:16:33;100979.32;;;20.18;59.09
64632;BME280;58358;50.936;0.246;2022-08-03T10:18:54;100977.85;;;20.05;59.11
64632;BME280;58358;50.936;0.246;2022-08-03T10:21:19;100982.75;;;19.78;60.20
64632;BME280;58358;50.936;0.246;2022-08-03T10:23:45;100982.54;;;20.59;57.91
64632;BME280;58358;50.936;0.246;2022-08-03T10:26:12;100986.51;;;18.81;61.51
64632;BME280;58358;50.936;0.246;2022-08-03T10:28:39;100987.54;;;19.77;60.14
64632;BME280;58358;50.936;0.246;2022-08-03T10:31:02;100985.06;;;20.57;58.76
64632;BME280;58358;50.936;0.246;2022-08-03T10:33:27;100982.34;;;20.04;58.86
64632;BME280;58358;50.936;0.246;2022-08-03T10:35:55;100990.33;;;18.76;62.81
64632;BME280;58358;50.936;0.246;2022-08-03T10:38:21;100982.33;;;20.11;60.00
64632;BME280;58358;50.936;0.246;2022-08-03T10:40:44;100983.49;;;19.09;60.66
64632;BME280;58358;50.936;0.246;2022-08-03T10:43:15;100979.42;;;21.34;57.26
64632;BME280;58358;50.936;0.246;2022-08-03T10:45:40;100971.39;;;20.50;57.74
64632;BME280;58358;50.936;0.246;2022-08-03T10:48:00;100968.90;;;20.42;58.33
64632;BME280;58358;50.936;0.246;2022-08-03T10:50:25;100963.56;;;20.28;58.01
64632;BME280;58358;50.936;0.246;2022-08-03T10:52:55;100964.43;;;20.98;57.26
64632;BME280;58358;50.936;0.246;2022-08-03T10:55:30;100965.17;;;21.12;56.19
64632;BME280;58358;50.936;0.246;2022-08-03T10:57:43;100969.20;;;21.87;55.23
64632;BME280;58358;50.936;0.246;2022-08-03T11:00:08;100956.67;;;22.41;52.99
64632;BME280;58358;50.936;0.246;2022-08-03T11:07:24;100956.59;;;22.28;52.73
64632;BME280;58358;50.936;0.246;2022-08-03T11:09:50;100950.55;;;22.53;52.14
64632;BME280;58358;50.936;0.246;2022-08-03T11:12:22;100953.32;;;21.52;54.55
64632;BME280;58358;50.936;0.246;2022-08-03T11:14:45;100953.57;;;20.28;57.78
64632;BME280;58358;50.936;0.246;2022-08-03T11:17:06;100953.64;;;21.40;56.26
64632;BME280;58358;50.936;0.246;2022-08-03T11:21:57;100947.62;;;23.06;51.89
64632;BME280;58358;50.936;0.246;2022-08-03T11:29:25;100947.25;;;21.51;54.94
64632;BME280;58358;50.936;0.246;2022-08-03T11:31:46;100944.94;;;22.55;53.17
64632;BME280;58358;50.936;0.246;2022-08-03T11:34:03;100945.58;;;22.64;53.17
64632;BME280;58358;50.936;0.246;2022-08-03T11:36:28;100951.86;;;21.87;54.35
64632;BME280;58358;50.936;0.246;2022-08-03T11:43:44;100950.98;;;21.52;54.51
64632;BME280;58358;50.936;0.246;2022-08-03T11:46:10;100955.48;;;21.78;54.81
64632;BME280;58358;50.936;0.246;2022-08-03T11:48:36;100949.17;;;22.56;52.99
64632;BME280;58358;50.936;0.246;2022-08-03T11:51:00;100956.42;;;22.22;53.98
64632;BME280;58358;50.936;0.246;2022-08-03T11:53:26;100956.60;;;22.18;54.15
64632;BME280;58358;50.936;0.246;2022-08-03T11:55:51;100950.08;;;22.26;54.81
64632;BME280;58358;50.936;0.246;2022-08-03T11:58:18;100952.44;;;22.07;54.56
64632;BME280;58358;50.936;0.246;2022-08-03T12:00:43;100945.59;;;23.03;52.25
64632;BME280;58358;50.936;0.246;2022-08-03T12:03:10;100949.64;;;23.31;51.86
64632;BME280;58358;50.936;0.246;2022-08-03T12:05:36;100953.72;;;22.28;53.48
64632;BME280;58358;50.936;0.246;2022-08-03T12:07:59;100955.88;;;22.34;53.99
64632;BME280;58358;50.936;0.246;2022-08-03T12:10:25;100949.28;;;22.15;53.70
64632;BME280;58358;50.936;0.246;2022-08-03T12:12:54;100946.29;;;23.59;51.36
64632;BME280;58358;50.936;0.246;2022-08-03T12:15:16;100948.29;;;23.01;52.49
64632;BME280;58358;50.936;0.246;2022-08-03T12:17:41;100947.28;;;23.98;50.68
64632;BME280;58358;50.936;0.246;2022-08-03T12:20:08;100944.39;;;22.92;52.68
64632;BME280;58358;50.936;0.246;2022-08-03T12:22:32;100944.00;;;22.78;52.73
64632;BME280;58358;50.936;0.246;2022-08-03T12:24:57;100940.53;;;23.16;51.93
64632;BME280;58358;50.936;0.246;2022-08-03T12:27:23;100939.21;;;23.77;50.41
64632;BME280;58358;50.936;0.246;2022-08-03T12:29:50;100937.18;;;23.12;51.89
64632;BME280;58358;50.936;0.246;2022-08-03T12:32:14;100933.16;;;22.75;52.67
64632;BME280;58358;50.936;0.246;2022-08-03T12:34:44;100930.61;;;23.66;50.35
64632;BME280;58358;50.936;0.246;2022-08-03T12:37:05;100932.02;;;23.95;49.78
64632;BME280;58358;50.936;0.246;2022-08-03T12:39:30;100933.72;;;22.90;52.05
64632;BME280;58358;50.936;0.246;2022-08-03T12:41:56;100935.88;;;22.71;52.70
64632;BME280;58358;50.936;0.246;2022-08-03T12:44:29;100937.17;;;23.06;52.99
64632;BME280;58358;50.936;0.246;2022-08-03T12:46:55;100939.43;;;22.27;54.73
64632;BME280;58358;50.936;0.246;2022-08-03T12:49:13;100942.49;;;21.77;55.25
64632;BME280;58358;50.936;0.246;2022-08-03T12:54:03;100936.82;;;21.60;56.27
64632;BME280;58358;50.936;0.246;2022-08-03T12:56:28;100938.21;;;21.35;57.82
64632;BME280;58358;50.936;0.246;2022-08-03T12:58:53;100935.74;;;21.80;56.18
64632;BME280;58358;50.936;0.246;2022-08-03T13:01:19;100928.83;;;22.50;54.86
64632;BME280;58358;50.936;0.246;2022-08-03T13:03:45;100933.65;;;21.32;56.22
64632;BME280;58358;50.936;0.246;2022-08-03T13:06:11;100929.26;;;21.53;56.60